Time;durP1;ratioP1;P1;durP2;ratioP2;P2;SDS_P1;SDS_P2;PMS_P1;PMS_P2;Temp;Humidity;BMP_temperature;BMP_pressure;BME280_temperature;BME280_humidity;BME280_pressure;Samples;Min_cycle;Max_cycle;Signal;HPM_P1;HPM_P2
2022/02/13 00:01:38;;;;;;;17.90;11.20;;;;;;;-5.30;77.41;99012.86;110172;1248;59680;-67
2022/02/13 00:04:08;;;;;;;22.10;12.20;;;;;;;-5.37;78.38;99015.99;110042;1250;71570;-67
2022/02/13 00:06:38;;;;;;;19.60;13.60;;;;;;;-5.49;80.21;99016.30;110088;1248;67605;-66
2022/02/13 00:09:09;;;;;;;23.70;14.10;;;;;;;-5.57;80.96;99019.92;110122;1250;69434;-66
2022/02/13 00:11:38;;;;;;;20.00;10.80;;;;;;;-5.59;79.90;99017.81;109980;1250;59696;-66
2022/02/13 00:14:07;;;;;;;21.20;11.50;;;;;;;-5.53;78.36;99017.08;109975;1250;59713;-66
2022/02/13 00:16:37;;;;;;;25.70;13.90;;;;;;;-5.50;78.56;99018.67;110184;1250;71462;-64
2022/02/13 00:19:07;;;;;;;23.50;13.30;;;;;;;-5.53;80.69;99025.08;109871;1250;67813;-66
2022/02/13 00:21:52;;;;;;;22.50;11.90;;;;;;;-5.55;80.08;99021.30;110124;1250;69419;-67
2022/02/13 00:24:22;;;;;;;21.40;12.80;;;;;;;-5.59;79.52;99014.09;109925;1250;59755;-66
2022/02/13 00:26:51;;;;;;;19.60;12.10;;;;;;;-5.65;79.76;99013.83;109854;1252;59702;-67
2022/02/13 00:29:25;;;;;;;21.60;12.20;;;;;;;-5.69;80.25;99017.31;110024;1251;71405;-67
2022/02/13 00:31:54;;;;;;;17.90;11.00;;;;;;;-5.72;80.70;99019.33;110178;1250;68512;-67
2022/02/13 00:34:24;;;;;;;15.80;10.70;;;;;;;-5.73;81.74;99014.21;110019;1248;68662;-67
2022/02/13 00:36:53;;;;;;;14.20;10.70;;;;;;;-5.70;82.17;99015.79;110147;1247;59678;-67
2022/02/13 00:39:22;;;;;;;25.70;12.80;;;;;;;-5.68;81.51;99013.42;110020;1248;59710;-65
2022/02/13 00:41:52;;;;;;;15.40;10.70;;;;;;;-5.71;80.86;99009.98;110220;1249;71360;-65
2022/02/13 00:44:21;;;;;;;21.70;11.20;;;;;;;-5.75;80.43;99009.75;110210;1248;68621;-67
2022/02/13 00:46:51;;;;;;;13.90;9.20;;;;;;;-5.76;80.83;99010.75;109907;1250;68773;-67
2022/02/13 00:49:21;;;;;;;8.10;6.20;;;;;;;-5.77;79.73;99010.21;109982;1248;59637;-67
2022/02/13 00:51:51;;;;;;;15.60;9.50;;;;;;;-5.77;78.12;99013.29;110166;1250;59675;-67
2022/02/13 00:54:21;;;;;;;13.90;8.10;;;;;;;-5.72;77.62;99006.56;109808;1250;70027;-67
2022/02/13 00:56:52;;;;;;;18.40;11.50;;;;;;;-5.72;77.48;99005.90;110109;1247;67503;-66
2022/02/13 00:59:23;;;;;;;11.10;7.90;;;;;;;-5.73;78.48;99002.80;109983;1249;68869;-65
2022/02/13 01:01:52;;;;;;;13.00;7.30;;;;;;;-5.76;78.89;98999.88;109657;1251;59759;-67
2022/02/13 01:04:21;;;;;;;19.20;10.80;;;;;;;-5.76;78.47;98997.33;109893;1250;59656;-65
2022/02/13 01:06:50;;;;;;;20.20;10.80;;;;;;;-5.74;80.13;98992.09;110055;1250;70823;-65
2022/02/13 01:09:19;;;;;;;14.60;9.90;;;;;;;-5.71;81.30;98993.84;110113;1250;68650;-67
2022/02/13 01:11:48;;;;;;;19.20;11.00;;;;;;;-5.65;80.70;98985.63;110159;1248;68618;-67
2022/02/13 01:14:18;;;;;;;15.70;8.40;;;;;;;-5.58;80.80;98979.80;110157;1247;60200;-66
2022/02/13 01:16:47;;;;;;;10.00;7.30;;;;;;;-5.53;79.17;98973.77;109850;1251;59738;-67
2022/02/13 01:19:16;;;;;;;8.00;6.00;;;;;;;-5.53;78.04;98972.41;110073;1250;70932;-66
2022/02/13 01:21:45;;;;;;;14.10;8.30;;;;;;;-5.45;77.31;98969.14;109890;1251;68647;-65
2022/02/13 01:24:14;;;;;;;10.20;7.30;;;;;;;-5.38;77.44;98965.16;109956;1250;69349;-66
2022/02/13 01:26:43;;;;;;;12.00;8.00;;;;;;;-5.29;77.57;98962.58;109847;1251;59762;-65
2022/02/13 01:29:13;;;;;;;16.30;8.60;;;;;;;-5.21;77.54;98963.72;109986;1251;59736;-65
2022/02/13 01:31:43;;;;;;;8.50;6.50;;;;;;;-5.16;77.45;98964.48;109856;1250;71542;-65
2022/02/13 01:34:13;;;;;;;13.40;8.50;;;;;;;-5.11;77.23;98958.09;109921;1250;68937;-66
2022/02/13 01:36:43;;;;;;;12.00;7.90;;;;;;;-5.06;77.26;98955.95;109891;1250;69299;-67
2022/02/13 01:39:14;;;;;;;18.00;10.60;;;;;;;-5.04;77.81;98954.25;109994;1247;59703;-66
2022/02/13 01:41:49;;;;;;;18.40;10.70;;;;;;;-5.08;78.51;98952.34;110146;1250;59748;-66
2022/02/13 01:44:33;;;;;;;16.30;10.50;;;;;;;-5.12;78.32;98949.75;110170;1250;71628;-65
2022/02/13 01:47:05;;;;;;;13.70;8.40;;;;;;;-5.18;78.11;98947.10;110146;1250;68376;-65
2022/02/13 01:49:34;;;;;;;15.30;9.60;;;;;;;-5.26;78.63;98944.44;109937;1251;69219;-67
2022/02/13 01:52:06;;;;;;;14.90;8.80;;;;;;;-5.29;78.79;98944.55;109937;1251;59781;-64
2022/02/13 01:54:36;;;;;;;;;;;;;;;-5.33;78.58;98942.98;110001;1249;59804;-66
2022/02/13 01:57:10;;;;;;;12.20;8.00;;;;;;;-5.34;78.62;98942.78;109961;1250;71755;-66
2022/02/13 01:59:41;;;;;;;14.00;8.30;;;;;;;-5.39;78.29;98938.81;109933;1250;68547;-66
2022/02/13 02:02:10;;;;;;;14.80;8.80;;;;;;;-5.41;79.61;98932.83;110135;1249;69245;-65
2022/02/13 02:04:42;;;;;;;13.20;7.70;;;;;;;-5.41;80.75;98932.66;109824;1251;59740;-65
2022/02/13 02:07:11;;;;;;;14.90;9.50;;;;;;;-5.43;79.65;98931.61;109961;1250;59657;-65
2022/02/13 02:09:52;;;;;;;13.30;7.90;;;;;;;-5.43;79.40;98928.73;110165;1247;71838;-65
2022/02/13 02:12:21;;;;;;;14.90;9.50;;;;;;;-5.45;78.65;98925.31;109951;1250;67934;-65
2022/02/13 02:14:51;;;;;;;14.80;9.10;;;;;;;-5.48;79.49;98925.25;110140;1250;69334;-65
2022/02/13 02:17:23;;;;;;;13.30;8.60;;;;;;;-5.48;79.51;98927.80;110120;1248;59713;-65
2022/02/13 02:19:52;;;;;;;13.50;9.80;;;;;;;-5.50;79.43;98924.55;109910;1249;59688;-65
2022/02/13 02:22:22;;;;;;;15.60;8.60;;;;;;;-5.48;79.83;98924.73;109989;1251;70852;-65
2022/02/13 02:24:51;;;;;;;12.20;9.10;;;;;;;-5.45;79.77;98924.29;109872;1251;68527;-66
2022/02/13 02:27:21;;;;;;;11.50;8.50;;;;;;;-5.42;79.07;98926.52;109838;1251;68626;-67
2022/02/13 02:29:50;;;;;;;11.80;7.30;;;;;;;-5.44;78.95;98929.73;110191;1251;60036;-68
2022/02/13 02:32:20;;;;;;;9.90;7.10;;;;;;;-5.43;79.23;98929.91;110178;1247;59731;-64
2022/02/13 02:34:50;;;;;;;12.50;7.70;;;;;;;-5.43;78.69;98930.08;110039;1251;70750;-66
2022/02/13 02:37:20;;;;;;;11.60;7.60;;;;;;;-5.42;78.75;98929.92;110219;1248;68606;-65
2022/02/13 02:39:50;;;;;;;12.60;8.10;;;;;;;-5.40;78.76;98932.16;109863;1252;68582;-65
2022/02/13 02:42:19;;;;;;;13.70;8.40;;;;;;;-5.42;78.32;98928.23;109815;1251;59760;-65
2022/02/13 02:44:49;;;;;;;18.20;10.10;;;;;;;-5.52;78.30;98924.35;109395;1250;712494;-66
2022/02/13 02:47:19;;;;;;;13.90;8.40;;;;;;;-5.62;78.71;98925.88;109986;1250;70963;-65
2022/02/13 02:49:49;;;;;;;11.50;7.50;;;;;;;-5.69;78.14;98923.23;109861;1251;67656;-67
2022/02/13 02:52:18;;;;;;;14.50;8.80;;;;;;;-5.75;78.00;98922.77;110196;1247;68724;-66
2022/02/13 02:54:47;;;;;;;8.90;6.60;;;;;;;-5.83;78.00;98921.81;110002;1251;59721;-65
2022/02/13 02:57:17;;;;;;;13.30;7.70;;;;;;;-5.90;78.09;98917.96;110126;1248;59729;-64
2022/02/13 02:59:47;;;;;;;13.50;7.20;;;;;;;-5.95;79.01;98916.55;109886;1250;70555;-67
2022/02/13 03:02:17;;;;;;;10.50;7.10;;;;;;;-5.94;81.04;98919.11;109891;1251;68608;-65
2022/02/13 03:04:46;;;;;;;10.20;7.80;;;;;;;-5.90;80.65;98915.42;109984;1250;67734;-66
2022/02/13 03:07:16;;;;;;;11.90;7.60;;;;;;;-5.86;80.40;98915.64;110119;1249;59766;-65
2022/02/13 03:09:45;;;;;;;10.80;7.00;;;;;;;-5.85;79.87;98916.34;110071;1247;59695;-65
2022/02/13 03:12:15;;;;;;;10.60;6.90;;;;;;;-5.84;79.87;98915.85;110097;1248;71543;-65
2022/02/13 03:14:45;;;;;;;;;;;;;;;-5.83;79.24;98919.59;110116;1248;68614;-63
2022/02/13 03:17:15;;;;;;;8.40;5.20;;;;;;;-5.85;78.98;98914.14;110166;1246;68617;-66
2022/02/13 03:19:45;;;;;;;6.50;5.10;;;;;;;-5.87;78.73;98915.98;109933;1251;59704;-66
2022/02/13 03:22:14;;;;;;;11.50;7.10;;;;;;;-5.90;78.65;98911.85;110161;1247;59741;-67
2022/02/13 03:24:44;;;;;;;9.40;7.40;;;;;;;-5.92;79.27;98916.92;109945;1250;71514;-67
2022/02/13 03:27:14;;;;;;;14.00;7.90;;;;;;;-5.90;79.35;98917.11;109919;1250;67788;-65
2022/02/13 03:29:43;;;;;;;10.90;7.00;;;;;;;-5.86;79.73;98915.30;109925;1250;68708;-66
2022/02/13 03:32:13;;;;;;;11.00;7.30;;;;;;;-5.83;79.56;98912.46;110008;1250;59750;-64
2022/02/13 03:34:43;;;;;;;11.60;7.50;;;;;;;-5.80;79.88;98914.05;109648;1251;59701;-65
2022/02/13 03:37:13;;;;;;;;;;;;;;;-5.78;79.48;98917.83;109896;1251;70555;-66
2022/02/13 03:39:43;;;;;;;9.00;6.30;;;;;;;-5.76;78.62;98917.85;110120;1251;68074;-66
2022/02/13 03:42:13;;;;;;;8.50;4.70;;;;;;;-5.74;79.27;98915.16;109929;1251;69392;-67
2022/02/13 03:44:43;;;;;;;6.50;4.70;;;;;;;-5.73;78.47;98916.38;109951;1251;59857;-65
2022/02/13 03:47:13;;;;;;;11.10;7.00;;;;;;;-5.71;77.48;98911.48;110121;1248;59636;-65
2022/02/13 03:49:43;;;;;;;9.70;6.00;;;;;;;-5.69;77.52;98912.02;109704;1251;71556;-64
2022/02/13 03:52:14;;;;;;;11.10;6.90;;;;;;;-5.69;77.13;98910.16;109848;1250;68558;-65
2022/02/13 03:54:43;;;;;;;6.30;3.90;;;;;;;-5.71;76.91;98909.27;110156;1247;68843;-65
2022/02/13 03:57:13;;;;;;;6.20;5.10;;;;;;;-5.73;76.28;98905.84;110142;1247;59798;-65
2022/02/13 03:59:43;;;;;;;11.90;6.30;;;;;;;-5.75;76.19;98902.92;110158;1247;59758;-64
2022/02/13 04:02:13;;;;;;;;;;;;;;;-5.79;76.27;98904.05;110019;1248;71543;-66
2022/02/13 04:04:42;;;;;;;5.10;3.40;;;;;;;-5.83;76.69;98905.51;110177;1247;68985;-64
2022/02/13 04:07:12;;;;;;;6.60;3.80;;;;;;;-5.88;75.94;98903.73;110074;1248;69430;-66
2022/02/13 04:09:42;;;;;;;8.20;5.20;;;;;;;-5.90;75.57;98904.90;110094;1248;60046;-65
2022/02/13 04:12:12;;;;;;;9.80;6.40;;;;;;;-5.89;75.79;98900.32;110171;1247;59754;-65
2022/02/13 04:14:42;;;;;;;7.70;5.30;;;;;;;-5.91;75.99;98897.75;109823;1252;70805;-66
2022/02/13 04:17:11;;;;;;;9.00;6.20;;;;;;;-5.90;76.01;98898.27;109916;1248;68496;-65
2022/02/13 04:19:42;;;;;;;9.10;5.90;;;;;;;-5.90;76.77;98898.45;110130;1247;69414;-64
2022/02/13 04:22:11;;;;;;;6.80;4.30;;;;;;;-5.92;76.70;98894.86;110064;1248;59688;-65
2022/02/13 04:24:41;;;;;;;7.60;5.00;;;;;;;-5.95;76.29;98891.59;109947;1247;59780;-64
2022/02/13 04:27:10;;;;;;;10.30;6.00;;;;;;;-5.92;76.26;98891.29;110184;1248;70717;-65
2022/02/13 04:29:40;;;;;;;6.60;5.60;;;;;;;-5.87;76.67;98889.30;110022;1248;68600;-67
2022/02/13 04:32:11;;;;;;;8.90;5.30;;;;;;;-5.87;76.44;98893.20;110061;1247;68590;-65
2022/02/13 04:34:41;;;;;;;9.40;6.10;;;;;;;-5.88;76.32;98885.38;109920;1250;59710;-65
2022/02/13 04:37:10;;;;;;;10.00;6.30;;;;;;;-5.84;76.76;98883.92;110175;1247;59752;-64
2022/02/13 04:39:40;;;;;;;8.60;5.80;;;;;;;-5.87;76.77;98882.01;109850;1250;71339;-62
2022/02/13 04:42:12;;;;;;;9.50;5.70;;;;;;;-5.90;76.52;98883.16;109748;1251;68565;-65
2022/02/13 04:44:43;;;;;;;11.70;6.50;;;;;;;-5.91;76.65;98882.98;110050;1249;68599;-65
2022/02/13 04:47:13;;;;;;;11.60;7.30;;;;;;;-5.90;77.17;98880.62;109859;1250;59731;-65
2022/02/13 04:49:43;;;;;;;14.50;8.10;;;;;;;-5.93;77.32;98878.36;109779;1251;60165;-67
2022/02/13 04:52:13;;;;;;;12.70;9.10;;;;;;;-6.03;78.35;98877.73;109877;1251;71342;-66
2022/02/13 04:54:42;;;;;;;11.70;8.00;;;;;;;-6.09;78.33;98879.29;109797;1251;68589;-65
2022/02/13 04:57:11;;;;;;;9.20;5.60;;;;;;;-6.18;78.39;98876.28;109942;1251;69410;-65
2022/02/13 04:59:41;;;;;;;10.80;7.10;;;;;;;-6.19;77.25;98879.15;109952;1250;59680;-65
2022/02/13 05:02:11;;;;;;;10.90;6.80;;;;;;;-6.18;77.72;98882.40;110016;1251;59621;-65
2022/02/13 05:04:40;;;;;;;10.60;5.60;;;;;;;-6.17;77.98;98877.65;110018;1250;71548;-64
2022/02/13 05:07:10;;;;;;;10.40;5.90;;;;;;;-6.15;78.25;98877.16;109951;1251;68459;-66
2022/02/13 05:09:40;;;;;;;10.30;7.10;;;;;;;-6.22;78.00;98880.27;109836;1250;68462;-64
2022/02/13 05:12:10;;;;;;;6.10;4.50;;;;;;;-6.28;78.03;98881.70;109601;1253;59726;-65
2022/02/13 05:14:40;;;;;;;9.90;5.90;;;;;;;-6.32;77.49;98876.55;109826;1252;59696;-67
2022/02/13 05:17:10;;;;;;;9.20;6.60;;;;;;;-6.34;77.34;98880.41;109925;1250;70932;-65
2022/02/13 05:19:39;;;;;;;9.10;6.10;;;;;;;-6.39;77.38;98876.92;109893;1251;67844;-66
2022/02/13 05:22:08;;;;;;;8.20;5.60;;;;;;;-6.42;77.25;98878.22;109948;1251;69443;-65
2022/02/13 05:24:37;;;;;;;11.80;7.40;;;;;;;-6.44;77.31;98879.73;109932;1249;59696;-65
2022/02/13 05:27:06;;;;;;;7.80;5.60;;;;;;;-6.47;78.18;98875.60;110003;1248;59669;-66
2022/02/13 05:29:38;;;;;;;10.10;5.70;;;;;;;-6.48;77.62;98875.90;109997;1251;71657;-67
2022/02/13 05:32:09;;;;;;;10.90;6.30;;;;;;;-6.48;77.84;98875.06;109781;1251;68466;-65
2022/02/13 05:34:40;;;;;;;10.90;7.40;;;;;;;-6.49;77.94;98877.08;109931;1251;69545;-64
2022/02/13 05:37:09;;;;;;;10.40;6.80;;;;;;;-6.47;78.03;98877.61;110141;1248;59707;-66
2022/02/13 05:39:39;;;;;;;9.20;5.60;;;;;;;-6.50;78.42;98876.73;110117;1247;59681;-65
2022/02/13 05:42:09;;;;;;;10.40;7.10;;;;;;;-6.53;78.31;98882.10;109951;1251;72158;-65
2022/02/13 05:44:39;;;;;;;8.20;6.00;;;;;;;-6.56;78.66;98880.02;109978;1251;67626;-65
2022/02/13 05:47:08;;;;;;;12.60;7.40;;;;;;;-6.59;78.32;98876.23;110044;1247;69003;-65
2022/02/13 05:49:37;;;;;;;9.60;5.70;;;;;;;-6.59;78.17;98875.02;110037;1247;59757;-64
2022/02/13 05:52:07;;;;;;;10.90;7.90;;;;;;;-6.47;78.59;98868.30;110008;1247;59687;-64
2022/02/13 05:54:36;;;;;;;9.50;6.40;;;;;;;-6.32;79.06;98867.05;109816;1247;71562;-64
2022/02/13 05:57:06;;;;;;;12.40;6.60;;;;;;;-6.19;79.20;98865.91;109946;1251;68625;-65
2022/02/13 05:59:35;;;;;;;11.00;7.30;;;;;;;-6.14;78.78;98865.31;109968;1250;69669;-64
2022/02/13 06:02:05;;;;;;;10.40;6.40;;;;;;;-6.14;78.78;98866.34;109740;1250;59720;-64
2022/02/13 06:04:34;;;;;;;12.80;7.60;;;;;;;-6.14;78.49;98867.35;109907;1251;59696;-65
2022/02/13 06:07:04;;;;;;;5.30;4.00;;;;;;;-6.14;78.63;98870.23;110218;1247;70785;-65
2022/02/13 06:09:33;;;;;;;6.00;3.90;;;;;;;-6.12;78.57;98869.92;109960;1248;68598;-65
2022/02/13 06:12:02;;;;;;;9.60;6.20;;;;;;;-6.05;77.97;98872.23;110139;1247;69439;-69
2022/02/13 06:14:31;;;;;;;16.20;9.80;;;;;;;-5.98;78.07;98869.64;109737;1248;59832;-67
2022/02/13 06:17:00;;;;;;;12.30;8.10;;;;;;;-5.93;79.12;98868.88;110173;1247;59684;-64
2022/02/13 06:19:30;;;;;;;9.00;6.20;;;;;;;-5.86;78.06;98869.30;110050;1247;70807;-65
2022/02/13 06:21:59;;;;;;;15.30;9.30;;;;;;;-5.81;78.75;98871.58;109730;1251;68256;-64
2022/02/13 06:24:28;;;;;;;11.90;9.00;;;;;;;-5.78;78.53;98865.67;109700;1251;68508;-64
2022/02/13 06:26:58;;;;;;;17.70;12.40;;;;;;;-5.74;78.29;98868.45;109899;1251;59821;-66
2022/02/13 06:29:26;;;;;;;11.30;7.70;;;;;;;-5.71;77.99;98868.84;109936;1246;59709;-64
2022/02/13 06:31:57;;;;;;;14.90;11.40;;;;;;;-5.65;77.79;98867.41;109983;1247;71567;-67
2022/02/13 06:34:25;;;;;;;;;;;;;;;-5.59;78.23;98867.33;110014;1248;66755;-65
2022/02/13 06:36:56;;;;;;;31.30;19.90;;;;;;;-5.50;78.28;98865.06;110131;1247;69437;-67
2022/02/13 06:39:25;;;;;;;46.30;25.50;;;;;;;-5.39;77.57;98865.57;109914;1251;59768;-67
2022/02/13 06:41:54;;;;;;;42.20;25.60;;;;;;;-5.25;77.80;98867.46;110066;1249;59684;-65
2022/02/13 06:44:23;;;;;;;50.10;31.50;;;;;;;-5.10;78.16;98865.61;109960;1247;70794;-67
2022/02/13 06:46:52;;;;;;;37.80;25.90;;;;;;;-4.89;77.82;98860.42;110076;1248;67814;-66
2022/02/13 06:49:21;;;;;;;29.30;19.70;;;;;;;-4.56;77.42;98857.05;110067;1248;68544;-66
2022/02/13 06:51:50;;;;;;;36.20;22.60;;;;;;;-4.10;76.68;98858.17;109849;1251;59817;-67
2022/02/13 06:54:19;;;;;;;28.10;19.10;;;;;;;-3.52;75.96;98856.89;109925;1251;59687;-66
2022/02/13 06:56:49;;;;;;;27.40;19.60;;;;;;;-2.86;76.30;98853.98;110089;1247;70800;-67
2022/02/13 06:59:18;;;;;;;31.90;22.50;;;;;;;-2.22;76.05;98850.22;109812;1248;68611;-68
2022/02/13 07:01:47;;;;;;;48.90;31.50;;;;;;;-1.63;75.07;98851.59;109904;1251;69456;-67
2022/02/13 07:04:16;;;;;;;48.30;33.50;;;;;;;-1.03;72.75;98849.05;109847;1251;59720;-66
2022/02/13 07:06:50;;;;;;;45.50;30.40;;;;;;;-0.49;73.34;98846.58;110032;1250;59726;-66
2022/02/13 07:09:20;;;;;;;69.20;44.40;;;;;;;0.02;74.63;98845.90;109995;1250;71667;-68
2022/02/13 07:11:49;;;;;;;63.70;40.90;;;;;;;0.45;69.27;98843.81;109803;1247;67887;-68
2022/02/13 07:14:18;;;;;;;60.40;37.40;;;;;;;0.95;71.78;98843.63;109775;1251;69434;-69
2022/02/13 07:16:46;;;;;;;61.20;40.50;;;;;;;1.45;71.07;98842.67;109981;1248;59772;-67
2022/02/13 07:19:15;;;;;;;66.80;42.20;;;;;;;1.95;71.18;98840.91;109819;1250;59631;-67
2022/02/13 07:21:44;;;;;;;55.60;36.50;;;;;;;2.49;68.74;98839.67;110035;1247;70777;-68
2022/02/13 07:24:18;;;;;;;75.20;46.70;;;;;;;3.01;65.93;98836.98;109959;1247;67898;-67
2022/02/13 07:26:47;;;;;;;53.10;32.90;;;;;;;3.50;67.30;98829.27;110146;1247;69421;-67
2022/02/13 07:29:16;;;;;;;76.50;45.70;;;;;;;4.10;66.95;98829.60;109766;1251;59738;-69
2022/02/13 07:31:45;;;;;;;77.90;43.50;;;;;;;4.59;60.21;98828.54;110036;1249;59609;-67
2022/02/13 07:34:14;;;;;;;75.10;44.00;;;;;;;4.96;59.35;98823.41;109813;1251;70784;-67
2022/02/13 07:36:43;;;;;;;64.10;39.00;;;;;;;5.44;61.93;98826.48;109836;1251;67610;-69
2022/02/13 07:39:12;;;;;;;69.10;42.40;;;;;;;5.92;61.91;98827.84;110043;1250;68732;-68
2022/02/13 07:41:40;;;;;;;72.50;47.50;;;;;;;6.38;61.50;98823.05;109960;1248;59730;-68
2022/02/13 07:44:10;;;;;;;55.40;37.20;;;;;;;6.77;57.79;98817.58;110000;1251;59744;-68
2022/02/13 07:46:39;;;;;;;47.10;31.10;;;;;;;7.19;57.15;98813.98;110115;1247;71606;-71
2022/02/13 07:49:08;;;;;;;47.90;36.20;;;;;;;7.75;55.68;98814.83;109919;1248;67969;-69
2022/02/13 07:51:37;;;;;;;40.00;28.90;;;;;;;7.73;45.68;98808.29;110127;1247;68775;-69
2022/02/13 07:54:06;;;;;;;27.50;21.70;;;;;;;8.07;46.38;98806.59;110134;1247;59715;-68
2022/02/13 07:56:35;;;;;;;27.70;19.80;;;;;;;8.71;50.41;98807.61;110154;1247;59633;-68
2022/02/13 07:59:04;;;;;;;35.20;26.40;;;;;;;9.21;45.38;98803.49;109933;1247;69841;-67
2022/02/13 08:01:33;;;;;;;30.30;22.80;;;;;;;9.71;45.89;98805.00;109883;1247;69567;-67
2022/02/13 08:04:02;;;;;;;19.50;14.60;;;;;;;10.16;41.46;98805.28;110053;1247;69270;-69
2022/02/13 08:06:31;;;;;;;18.60;15.00;;;;;;;10.83;39.93;98804.00;109909;1249;59719;-68
2022/02/13 08:09:00;;;;;;;24.40;20.50;;;;;;;11.36;40.40;98803.48;109897;1251;59935;-68
2022/02/13 08:11:29;;;;;;;18.80;15.30;;;;;;;11.86;38.93;98806.16;109991;1250;70758;-70
2022/02/13 08:13:59;;;;;;;18.20;14.40;;;;;;;12.09;34.53;98802.77;110054;1250;67837;-67
2022/02/13 08:16:28;;;;;;;20.80;17.10;;;;;;;12.29;31.76;98804.13;110097;1251;69476;-68
2022/02/13 08:18:57;;;;;;;17.90;12.90;;;;;;;12.29;32.98;98801.81;110075;1247;59688;-70
2022/02/13 08:21:26;;;;;;;13.70;11.60;;;;;;;12.45;31.14;98796.69;110166;1247;59727;-67
2022/02/13 08:23:55;;;;;;;11.40;8.80;;;;;;;12.55;30.80;98787.23;110196;1247;71760;-68
2022/02/13 08:26:24;;;;;;;10.50;8.10;;;;;;;12.39;28.99;98788.15;110065;1250;68606;-68
2022/02/13 08:28:52;;;;;;;11.80;9.60;;;;;;;12.25;30.53;98786.15;110002;1251;68645;-68
2022/02/13 08:31:21;;;;;;;9.60;7.60;;;;;;;12.48;31.35;98782.00;109932;1249;59770;-69
2022/02/13 08:33:50;;;;;;;9.20;7.30;;;;;;;12.87;29.85;98777.90;109979;1247;59691;-71
2022/02/13 08:36:19;;;;;;;10.40;8.60;;;;;;;12.63;29.33;98780.74;109880;1250;70993;-69
2022/02/13 08:38:48;;;;;;;8.60;6.90;;;;;;;12.55;29.24;98776.67;109916;1250;68632;-70
2022/02/13 08:41:17;;;;;;;8.80;6.60;;;;;;;12.86;29.30;98772.92;109857;1250;68660;-71
2022/02/13 08:43:48;;;;;;;6.20;4.80;;;;;;;12.92;27.38;98767.48;109856;1250;60010;-70
2022/02/13 08:46:17;;;;;;;7.20;5.10;;;;;;;13.27;27.81;98771.82;110031;1250;59754;-71
2022/02/13 08:48:46;;;;;;;8.10;5.90;;;;;;;13.09;26.96;98769.55;109846;1248;70779;-68
2022/02/13 08:51:17;;;;;;;6.00;4.60;;;;;;;13.15;28.33;98767.84;109788;1251;67314;-70
2022/02/13 08:53:46;;;;;;;5.20;4.00;;;;;;;13.60;28.12;98767.11;109913;1250;68771;-68
2022/02/13 08:56:15;;;;;;;8.60;5.80;;;;;;;14.02;27.06;98764.25;109827;1250;60165;-68
2022/02/13 08:58:44;;;;;;;6.70;5.20;;;;;;;13.33;26.50;98763.04;109883;1248;59828;-69
2022/02/13 09:01:13;;;;;;;6.30;4.40;;;;;;;13.49;26.49;98765.74;109909;1250;72217;-68
2022/02/13 09:03:42;;;;;;;5.80;4.70;;;;;;;13.57;26.20;98763.64;109905;1250;67785;-69
2022/02/13 09:06:11;;;;;;;5.50;4.70;;;;;;;14.31;26.25;98759.88;110071;1250;69448;-68
2022/02/13 09:08:40;;;;;;;5.00;4.30;;;;;;;14.91;26.06;98753.34;109691;1251;59690;-70
2022/02/13 09:11:09;;;;;;;6.10;4.50;;;;;;;15.76;25.39;98754.58;109900;1250;59639;-70
2022/02/13 09:13:38;;;;;;;6.60;5.50;;;;;;;16.36;24.59;98751.50;109898;1250;71684;-70
2022/02/13 09:16:07;;;;;;;8.60;4.90;;;;;;;15.92;22.84;98751.09;109733;1250;68725;-68
2022/02/13 09:18:36;;;;;;;7.60;6.10;;;;;;;16.23;23.56;98752.52;109722;1251;69486;-70
2022/02/13 09:21:05;;;;;;;6.00;4.70;;;;;;;16.44;23.93;98751.48;110059;1248;59707;-70
2022/02/13 09:23:36;;;;;;;7.80;5.10;;;;;;;17.15;23.44;98744.41;109931;1250;59730;-70
2022/02/13 09:26:05;;;;;;;6.20;4.80;;;;;;;17.58;23.02;98746.30;109921;1251;71552;-70
2022/02/13 09:28:34;;;;;;;5.60;4.60;;;;;;;17.03;21.54;98739.73;109998;1250;67825;-69
2022/02/13 09:31:04;;;;;;;6.20;4.80;;;;;;;17.70;23.28;98744.60;110043;1251;69525;-69
2022/02/13 09:33:33;;;;;;;7.00;5.20;;;;;;;18.32;22.04;98739.49;109878;1251;59706;-70
2022/02/13 09:36:03;;;;;;;6.60;5.10;;;;;;;18.62;21.40;98732.77;109689;1251;59719;-70
2022/02/13 09:38:32;;;;;;;7.30;5.50;;;;;;;19.11;22.06;98731.20;109738;1251;72150;-70
2022/02/13 09:41:01;;;;;;;9.50;6.60;;;;;;;19.71;21.60;98735.00;109944;1250;67829;-72
2022/02/13 09:43:31;;;;;;;7.90;6.20;;;;;;;19.43;20.03;98732.71;109942;1250;68727;-67
2022/02/13 09:46:00;;;;;;;16.10;12.10;;;;;;;19.87;21.12;98728.80;109884;1251;59781;-69
2022/02/13 09:48:29;;;;;;;17.90;14.20;;;;;;;20.16;20.23;98720.98;109924;1251;59667;-69
2022/02/13 09:50:59;;;;;;;14.90;12.00;;;;;;;19.81;19.11;98716.09;109909;1251;70827;-68
2022/02/13 09:53:34;;;;;;;15.80;11.20;;;;;;;19.17;19.39;98716.02;109896;1250;68612;-71
2022/02/13 09:56:04;;;;;;;13.40;10.80;;;;;;;18.31;20.35;98709.91;109967;1251;69098;-72
2022/02/13 09:58:34;;;;;;;9.20;7.40;;;;;;;18.63;20.24;98707.92;109945;1250;59758;-71
2022/02/13 10:01:06;;;;;;;24.30;16.60;;;;;;;19.11;20.44;98705.48;109854;1250;59779;-70
2022/02/13 10:03:37;;;;;;;9.70;7.90;;;;;;;18.34;19.94;98704.08;109944;1250;71276;-70
2022/02/13 10:06:14;;;;;;;12.50;9.40;;;;;;;18.82;20.07;98695.08;109774;1251;68112;-70
2022/02/13 10:08:46;;;;;;;9.30;7.90;;;;;;;18.36;20.15;98691.21;109932;1250;69464;-70
2022/02/13 10:11:20;;;;;;;8.30;7.30;;;;;;;17.16;20.93;98690.60;110047;1249;59741;-72
2022/02/13 10:14:00;;;;;;;7.60;6.80;;;;;;;18.29;20.49;98685.42;109881;1250;60071;-70
2022/02/13 10:16:30;;;;;;;10.80;9.40;;;;;;;19.16;19.83;98678.63;110115;1247;71532;-73
2022/02/13 10:19:05;;;;;;;8.70;7.00;;;;;;;19.01;19.21;98674.23;109899;1247;67820;-73
2022/02/13 10:21:40;;;;;;;15.30;12.40;;;;;;;18.68;19.62;98669.08;109979;1248;68719;-72
2022/02/13 10:24:15;;;;;;;10.40;8.40;;;;;;;18.84;19.83;98668.71;110023;1247;59695;-71
2022/02/13 10:26:46;;;;;;;11.20;9.40;;;;;;;18.92;19.32;98664.39;109945;1250;59643;-72
2022/02/13 10:29:15;;;;;;;9.00;7.20;;;;;;;18.05;19.73;98663.19;109942;1250;71968;-71
2022/02/13 10:31:45;;;;;;;8.20;7.30;;;;;;;17.64;20.02;98659.61;109975;1249;68645;-70
2022/02/13 10:34:15;;;;;;;7.20;5.70;;;;;;;17.90;20.24;98652.29;109881;1250;67954;-71
2022/02/13 10:36:45;;;;;;;8.40;6.90;;;;;;;18.46;19.84;98643.09;109816;1250;59788;-71
2022/02/13 10:39:20;;;;;;;8.60;7.60;;;;;;;19.16;19.09;98639.45;110051;1248;59784;-71
2022/02/13 10:41:52;;;;;;;10.20;8.00;;;;;;;17.91;19.39;98638.71;110029;1248;71488;-72
2022/02/13 10:44:29;;;;;;;8.60;6.40;;;;;;;17.24;20.53;98641.65;110216;1247;68758;-72
2022/02/13 10:46:57;;;;;;;9.60;8.10;;;;;;;18.64;20.08;98634.27;109792;1248;69384;-72
2022/02/13 10:49:27;;;;;;;13.70;10.30;;;;;;;19.68;19.36;98630.37;109957;1248;59651;-71
2022/02/13 10:51:56;;;;;;;8.30;7.30;;;;;;;18.96;18.03;98626.80;109966;1248;59652;-71
2022/02/13 10:54:26;;;;;;;9.90;8.20;;;;;;;17.22;19.65;98628.48;110170;1247;72226;-71
2022/02/13 10:56:56;;;;;;;8.90;7.20;;;;;;;18.21;19.36;98621.52;110023;1249;67833;-72
2022/02/13 10:59:25;;;;;;;8.40;6.00;;;;;;;18.36;18.85;98617.46;109968;1247;69510;-71
2022/02/13 11:02:03;;;;;;;7.70;5.70;;;;;;;19.03;19.13;98613.06;110157;1247;59783;-72
2022/02/13 11:04:35;;;;;;;9.90;7.40;;;;;;;19.93;18.57;98611.27;110161;1247;59695;-71
2022/02/13 11:07:04;;;;;;;7.30;5.80;;;;;;;20.31;17.56;98608.45;110173;1247;71506;-71
2022/02/13 11:09:37;;;;;;;8.30;6.50;;;;;;;20.26;17.22;98606.61;110159;1247;68370;-71
2022/02/13 11:12:08;;;;;;;8.40;7.50;;;;;;;20.04;17.44;98606.09;109908;1247;68637;-71
2022/02/13 11:14:40;;;;;;;7.60;5.80;;;;;;;19.80;18.10;98597.63;110012;1248;59741;-73
2022/02/13 11:17:14;;;;;;;6.80;5.50;;;;;;;20.62;17.90;98590.33;110131;1247;59673;-72
2022/02/13 11:19:45;;;;;;;6.30;4.40;;;;;;;21.46;17.93;98594.93;109797;1248;70771;-72
2022/02/13 11:22:15;;;;;;;6.70;5.10;;;;;;;21.95;17.28;98585.95;110005;1248;68014;-72
2022/02/13 11:24:53;;;;;;;7.40;5.90;;;;;;;20.42;16.80;98587.05;110104;1247;69414;-71
2022/02/13 11:27:25;;;;;;;6.40;5.60;;;;;;;18.11;18.34;98583.90;110220;1247;59719;-71
2022/02/13 11:29:56;;;;;;;8.30;6.10;;;;;;;17.25;19.71;98577.25;109952;1250;59746;-70
2022/02/13 11:32:42;;;;;;;7.10;5.30;;;;;;;18.04;19.10;98572.54;110019;1247;70893;-72